Time;durP1;ratioP1;P1;durP2;ratioP2;P2;SDS_P1;SDS_P2;PMS_P1;PMS_P2;Temp;Humidity;BMP_temperature;BMP_pressure;BME280_temperature;BME280_humidity;BME280_pressure;Samples;Min_cycle;Max_cycle;Signal;HPM_P1;HPM_P2
2024/04/06 00:00:44;;;;;;;14.60;4.53;;;17.10;99.90;;;;;;10420600;28;20073;-59
2024/04/06 00:05:47;;;;;;;14.45;2.83;;;17.20;99.90;;;;;;10424066;28;20079;-58
2024/04/06 00:10:49;;;;;;;19.05;3.35;;;17.50;99.90;;;;;;10419413;28;20048;-56
2024/04/06 00:15:51;;;;;;;14.35;2.67;;;17.10;99.90;;;;;;10422812;28;20994;-57
2024/04/06 00:20:55;;;;;;;12.45;2.97;;;17.50;99.90;;;;;;10425532;28;20069;-56
2024/04/06 00:25:58;;;;;;;11.25;2.58;;;17.60;99.90;;;;;;10419253;28;20099;-56
2024/04/06 00:31:00;;;;;;;7.18;2.80;;;17.40;99.90;;;;;;10427018;28;20111;-61
2024/04/06 00:36:09;;;;;;;9.13;2.88;;;17.20;99.90;;;;;;10417222;28;20056;-56
2024/04/06 00:41:11;;;;;;;10.75;2.78;;;17.10;99.90;;;;;;10418126;28;20057;-58
2024/04/06 00:46:16;;;;;;;8.85;2.67;;;17.10;99.90;;;;;;10418776;28;20052;-56
2024/04/06 00:51:23;;;;;;;9.02;2.70;;;17.40;99.90;;;;;;10420134;28;21046;-58
2024/04/06 00:56:31;;;;;;;10.20;3.20;;;17.20;99.90;;;;;;10420278;28;20048;-57
2024/04/06 01:01:39;;;;;;;10.30;2.67;;;17.30;99.90;;;;;;10419220;28;20950;-57
2024/04/06 01:06:44;;;;;;;8.20;2.83;;;17.50;99.90;;;;;;10420183;28;20057;-57
2024/04/06 01:11:47;;;;;;;7.00;2.42;;;17.60;99.90;;;;;;10415103;28;20492;-56
2024/04/06 01:16:55;;;;;;;6.95;3.03;;;17.60;99.90;;;;;;10421295;28;20057;-57
2024/04/06 01:21:58;;;;;;;11.98;3.22;;;17.90;99.90;;;;;;10418311;28;20045;-57
2024/04/06 01:27:03;;;;;;;5.57;2.28;;;18.00;99.90;;;;;;10414974;28;20053;-57
2024/04/06 01:32:05;;;;;;;9.05;2.60;;;17.70;99.90;;;;;;10418685;28;20416;-58
2024/04/06 01:37:14;;;;;;;8.68;2.90;;;17.80;99.90;;;;;;10419307;28;20468;-57
2024/04/06 01:42:27;;;;;;;7.70;3.05;;;17.70;99.90;;;;;;10423934;28;20056;-59
2024/04/06 01:47:32;;;;;;;9.73;2.60;;;17.40;99.90;;;;;;10426935;28;20580;-58
2024/04/06 01:52:36;;;;;;;6.30;2.13;;;17.60;99.90;;;;;;10426322;28;20045;-57
2024/04/06 01:57:43;;;;;;;6.38;2.42;;;17.00;99.90;;;;;;10424215;28;20123;-58
2024/04/06 02:02:48;;;;;;;6.20;2.35;;;17.10;99.90;;;;;;10424057;28;20052;-58
2024/04/06 02:07:50;;;;;;;6.00;2.30;;;17.10;99.90;;;;;;10425436;28;20417;-58
2024/04/06 02:13:00;;;;;;;6.13;2.97;;;17.40;99.90;;;;;;10424773;28;20166;-56
2024/04/06 02:18:05;;;;;;;8.40;2.40;;;17.20;99.90;;;;;;10423155;28;20068;-58
2024/04/06 02:23:13;;;;;;;6.50;2.80;;;17.70;99.90;;;;;;10423451;28;20055;-58
2024/04/06 02:28:16;;;;;;;7.82;2.50;;;17.70;99.90;;;;;;10425813;28;20509;-59
2024/04/06 02:33:18;;;;;;;5.47;2.63;;;17.80;99.90;;;;;;10428260;28;20571;-59
2024/04/06 02:38:21;;;;;;;8.27;2.88;;;17.90;99.90;;;;;;10422650;28;20053;-57
2024/04/06 02:43:29;;;;;;;5.70;2.03;;;17.90;99.90;;;;;;10421522;28;20041;-57
2024/04/06 02:48:31;;;;;;;4.93;2.65;;;17.50;99.90;;;;;;10418459;28;20139;-58
2024/04/06 02:53:33;;;;;;;5.85;2.38;;;17.70;99.90;;;;;;10419214;28;20045;-58
2024/04/06 02:58:46;;;;;;;8.60;2.30;;;17.50;99.90;;;;;;10418100;28;20127;-58
2024/04/06 03:03:51;;;;;;;5.05;1.92;;;17.80;99.90;;;;;;10420701;28;20499;-57
2024/04/06 03:08:53;;;;;;;9.07;2.63;;;17.70;99.90;;;;;;10423103;28;20049;-57
2024/04/06 03:13:58;;;;;;;7.38;2.80;;;17.90;99.90;;;;;;10420390;28;20084;-57
2024/04/06 03:19:00;;;;;;;5.78;2.17;;;18.00;99.90;;;;;;10421127;28;21176;-56
2024/04/06 03:24:04;;;;;;;6.78;1.88;;;17.90;99.90;;;;;;10421400;28;20056;-57
2024/04/06 03:29:08;;;;;;;2.90;1.60;;;17.80;99.90;;;;;;10421914;28;20547;-57
2024/04/06 03:34:10;;;;;;;6.82;2.38;;;18.00;99.90;;;;;;10428940;28;20052;-58
2024/04/06 03:39:12;;;;;;;;;;;18.00;99.90;;;;;;10423308;28;20524;-56
2024/04/06 03:44:19;;;;;;;6.38;2.80;;;18.10;99.90;;;;;;10421723;28;19929;-57
2024/04/06 03:49:22;;;;;;;12.35;4.63;;;17.90;99.90;;;;;;10418871;28;20060;-56
2024/04/06 03:54:24;;;;;;;5.57;3.10;;;17.40;99.90;;;;;;10425143;28;20037;-56
2024/04/06 03:59:31;;;;;;;5.75;2.60;;;17.10;99.90;;;;;;10425133;28;20543;-58
2024/04/06 04:04:39;;;;;;;5.65;2.80;;;17.50;99.90;;;;;;10430702;28;20865;-57
2024/04/06 04:09:43;;;;;;;5.75;2.72;;;17.60;99.90;;;;;;10428607;28;20162;-56
2024/04/06 04:14:47;;;;;;;3.83;2.40;;;17.70;99.90;;;;;;10426088;28;20053;-56
2024/04/06 04:19:51;;;;;;;2.90;2.47;;;17.70;99.90;;;;;;10416405;28;20064;-57
2024/04/06 04:24:53;;;;;;;6.80;2.40;;;17.60;99.90;;;;;;10417291;28;20052;-57
2024/04/06 04:29:59;;;;;;;5.60;2.53;;;17.60;99.90;;;;;;10421487;28;20068;-60
2024/04/06 04:35:01;;;;;;;4.05;1.90;;;17.60;99.90;;;;;;10420637;28;20061;-58
2024/04/06 04:40:05;;;;;;;6.05;2.22;;;17.70;99.90;;;;;;10417964;28;20055;-56
2024/04/06 04:45:11;;;;;;;3.88;1.98;;;17.80;99.90;;;;;;10417037;28;20183;-57
2024/04/06 04:50:16;;;;;;;3.38;1.92;;;17.60;99.90;;;;;;10417141;28;20045;-57
2024/04/06 04:55:21;;;;;;;4.80;2.00;;;17.60;99.90;;;;;;10416565;28;20061;-56
2024/04/06 05:00:27;;;;;;;4.13;1.60;;;17.60;99.90;;;;;;10415374;28;20064;-57
2024/04/06 05:05:35;;;;;;;5.68;1.73;;;17.70;99.90;;;;;;10419558;28;20692;-58
2024/04/06 05:10:40;;;;;;;3.92;1.67;;;18.00;99.90;;;;;;10410882;28;20048;-56
2024/04/06 05:15:50;;;;;;;4.40;2.05;;;17.60;99.90;;;;;;10420347;28;20049;-58
2024/04/06 05:20:57;;;;;;;4.95;1.50;;;17.50;99.90;;;;;;10424203;28;20087;-58
2024/04/06 05:26:00;;;;;;;3.35;1.63;;;17.80;99.90;;;;;;10420417;28;20045;-58
2024/04/06 05:31:11;;;;;;;2.75;1.50;;;17.90;99.90;;;;;;10419798;28;20065;-57
2024/04/06 05:36:16;;;;;;;8.33;2.83;;;17.90;99.90;;;;;;10420734;28;20081;-56
2024/04/06 05:41:20;;;;;;;3.40;1.75;;;17.80;99.90;;;;;;10418262;28;20858;-57
2024/04/06 05:46:25;;;;;;;2.63;1.50;;;17.90;99.90;;;;;;10419581;28;20163;-58
2024/04/06 05:51:30;;;;;;;6.78;1.70;;;18.00;99.90;;;;;;10414220;28;20055;-58
2024/04/06 05:56:33;;;;;;;4.57;2.30;;;18.00;99.90;;;;;;10414897;28;20041;-61
2024/04/06 06:01:36;;;;;;;2.97;1.70;;;18.10;99.90;;;;;;10418118;28;20061;-58
2024/04/06 06:06:40;;;;;;;5.60;1.80;;;18.20;99.90;;;;;;10414243;28;20168;-58
2024/04/06 06:11:42;;;;;;;4.15;2.10;;;18.00;99.90;;;;;;10413233;28;20052;-57
2024/04/06 06:16:48;;;;;;;5.78;1.85;;;18.30;99.90;;;;;;10417624;28;20672;-58
2024/04/06 06:21:51;;;;;;;5.75;2.10;;;18.40;99.90;;;;;;10414860;28;20048;-56
2024/04/06 06:26:53;;;;;;;4.35;1.65;;;18.20;99.90;;;;;;10414542;28;20140;-57
2024/04/06 06:31:57;;;;;;;3.25;1.40;;;18.30;99.90;;;;;;10419072;28;20435;-57
2024/04/06 06:37:00;;;;;;;5.85;2.40;;;18.40;99.90;;;;;;10419161;28;20061;-60
2024/04/06 06:42:05;;;;;;;7.38;1.52;;;18.50;99.90;;;;;;10416077;28;20056;-57
2024/04/06 06:47:09;;;;;;;5.90;2.03;;;18.50;99.90;;;;;;10414115;28;20082;-58
2024/04/06 06:52:11;;;;;;;5.47;2.10;;;18.60;99.90;;;;;;10414901;28;20147;-58
2024/04/06 06:57:16;;;;;;;5.40;1.90;;;18.60;99.90;;;;;;10416843;28;20067;-56
2024/04/06 07:02:19;;;;;;;4.25;2.00;;;18.60;99.90;;;;;;10416147;28;20056;-57
2024/04/06 07:07:24;;;;;;;6.65;1.60;;;18.40;99.90;;;;;;10413083;28;20061;-56
2024/04/06 07:12:27;;;;;;;3.45;1.83;;;18.40;99.90;;;;;;10410103;28;20167;-60
2024/04/06 07:17:42;;;;;;;4.32;1.65;;;18.70;99.90;;;;;;10418369;28;20048;-58
2024/04/06 07:22:43;;;;;;;9.63;2.00;;;19.50;99.90;;;;;;10417002;28;20047;-58
2024/04/06 07:27:46;;;;;;;5.88;1.75;;;19.70;99.90;;;;;;10418803;28;20087;-59
2024/04/06 07:32:49;;;;;;;4.20;1.40;;;19.90;99.90;;;;;;10408544;28;20160;-57
2024/04/06 07:37:53;;;;;;;4.88;1.60;;;19.80;99.90;;;;;;10414016;28;20060;-58
2024/04/06 07:42:58;;;;;;;3.67;1.40;;;20.10;99.90;;;;;;10412763;28;20059;-57
2024/04/06 07:48:01;;;;;;;6.18;1.70;;;20.00;99.90;;;;;;10412371;28;21168;-58
2024/04/06 07:53:03;;;;;;;2.67;1.48;;;19.90;99.90;;;;;;10416742;28;20049;-59
2024/04/06 07:58:08;;;;;;;;;;;19.90;99.90;;;;;;10415003;28;20128;-58
2024/04/06 08:03:11;;;;;;;4.95;1.40;;;19.90;99.90;;;;;;10412992;28;19929;-58
2024/04/06 08:08:17;;;;;;;4.28;1.40;;;20.10;99.90;;;;;;10416010;28;20053;-57
2024/04/06 08:13:19;;;;;;;5.68;1.08;;;20.00;99.90;;;;;;10418419;28;20044;-57
2024/04/06 08:18:23;;;;;;;;;;;20.20;99.90;;;;;;10416327;28;20049;-58
2024/04/06 08:23:25;;;;;;;4.88;1.65;;;20.30;99.90;;;;;;10414129;28;19928;-57
2024/04/06 08:28:29;;;;;;;5.03;1.30;;;20.50;99.90;;;;;;10411018;28;20163;-55
2024/04/06 08:33:32;;;;;;;7.78;1.70;;;20.60;99.90;;;;;;10410151;28;20056;-57
2024/04/06 08:38:34;;;;;;;3.47;1.27;;;20.50;99.90;;;;;;10414110;28;20048;-57
2024/04/06 08:43:43;;;;;;;6.60;1.80;;;20.60;99.90;;;;;;10412342;28;20073;-57
2024/04/06 08:48:49;;;;;;;4.70;1.52;;;20.70;99.90;;;;;;10416156;28;20048;-58
2024/04/06 08:53:51;;;;;;;3.83;1.38;;;20.50;99.90;;;;;;10419098;28;20513;-60
2024/04/06 08:58:55;;;;;;;;;;;20.60;99.90;;;;;;10417853;28;20494;-58
2024/04/06 09:04:00;;;;;;;1.77;1.10;;;20.80;99.90;;;;;;10416627;28;22469;-58
2024/04/06 09:09:22;;;;;;;1.42;1.20;;;20.70;99.90;;;;;;10421059;28;20049;-58
2024/04/06 09:14:24;;;;;;;4.43;1.17;;;21.00;99.90;;;;;;10418390;28;20052;-59
2024/04/06 09:19:27;;;;;;;2.80;1.23;;;21.10;99.90;;;;;;10416635;28;20052;-58
2024/04/06 09:24:30;;;;;;;4.80;1.50;;;21.00;99.90;;;;;;10417165;28;20535;-58
2024/04/06 09:29:36;;;;;;;2.42;1.05;;;21.10;99.90;;;;;;10420245;28;20497;-57
2024/04/06 09:34:50;;;;;;;3.47;1.10;;;21.10;99.90;;;;;;10417265;28;20053;-57
2024/04/06 09:40:01;;;;;;;3.70;1.65;;;21.20;99.90;;;;;;10421024;28;20053;-56
2024/04/06 09:45:10;;;;;;;3.65;1.13;;;21.40;99.90;;;;;;10419111;28;20036;-58
2024/04/06 09:50:29;;;;;;;3.10;0.90;;;21.60;99.90;;;;;;10423328;28;22648;-57
2024/04/06 09:55:37;;;;;;;3.22;1.00;;;21.80;99.90;;;;;;10420529;28;20424;-56
2024/04/06 10:00:46;;;;;;;6.47;1.30;;;21.90;99.90;;;;;;10421776;28;20194;-56
2024/04/06 10:05:52;;;;;;;4.45;1.20;;;21.80;99.90;;;;;;10419030;28;20376;-59
2024/04/06 10:11:05;;;;;;;7.22;3.38;;;21.90;99.90;;;;;;10422339;28;20091;-56
2024/04/06 10:16:08;;;;;;;3.10;1.70;;;22.00;99.90;;;;;;10425058;28;20052;-56
2024/04/06 10:21:13;;;;;;;7.30;2.10;;;22.10;99.90;;;;;;10425438;28;20052;-55
2024/04/06 10:26:16;;;;;;;3.97;2.35;;;22.00;99.90;;;;;;10418085;28;22542;-57
2024/04/06 10:31:19;;;;;;;3.58;1.17;;;22.10;99.90;;;;;;10422154;28;20854;-57
2024/04/06 10:36:25;;;;;;;3.47;0.80;;;22.10;99.90;;;;;;10418212;28;20057;-58
2024/04/06 10:41:30;;;;;;;8.75;2.05;;;22.30;99.90;;;;;;10417706;28;20848;-57
2024/04/06 10:46:34;;;;;;;11.00;5.68;;;22.20;99.90;;;;;;10416613;28;20055;-56
2024/04/06 10:51:49;;;;;;;5.57;1.60;;;22.20;99.90;;;;;;10415964;28;20052;-57
2024/04/06 10:56:56;;;;;;;2.42;1.20;;;22.20;99.90;;;;;;10415954;28;20780;-55
2024/04/06 11:02:17;;;;;;;6.40;1.40;;;22.40;99.90;;;;;;10413495;28;20122;-55
2024/04/06 11:07:21;;;;;;;4.43;1.92;;;22.50;99.90;;;;;;10411714;28;20091;-57
2024/04/06 11:12:28;;;;;;;1.40;0.80;;;22.70;99.90;;;;;;10412244;28;20595;-57
2024/04/06 11:17:30;;;;;;;7.63;3.47;;;22.80;99.90;;;;;;10413899;28;20056;-58
2024/04/06 11:22:35;;;;;;;;;;;22.90;99.90;;;;;;10417110;28;20053;-57
2024/04/06 11:27:39;;;;;;;4.10;2.17;;;23.00;99.90;;;;;;10416544;28;19950;-57
2024/04/06 11:32:43;;;;;;;1.98;0.93;;;23.10;99.90;;;;;;10415865;28;20083;-59
2024/04/06 11:37:51;;;;;;;4.47;2.03;;;23.20;99.90;;;;;;10415082;28;20411;-58
2024/04/06 11:42:54;;;;;;;4.78;1.60;;;23.20;99.90;;;;;;10413162;28;20094;-60
2024/04/06 11:48:01;;;;;;;4.90;1.33;;;23.30;99.90;;;;;;10413310;28;20138;-57
2024/04/06 11:53:04;;;;;;;10.68;2.20;;;23.30;99.90;;;;;;10411674;28;23033;-57
2024/04/06 11:58:09;;;;;;;7.18;1.48;;;23.40;99.90;;;;;;10411469;28;20842;-57
2024/04/06 12:03:12;;;;;;;2.38;0.90;;;23.30;99.90;;;;;;10413052;28;20048;-57
2024/04/06 12:08:16;;;;;;;6.82;2.22;;;23.40;99.90;;;;;;10412200;28;20049;-58
2024/04/06 12:13:19;;;;;;;6.18;3.13;;;23.50;99.90;;;;;;10410161;28;20138;-56
2024/04/06 12:18:21;;;;;;;8.45;3.88;;;23.50;99.90;;;;;;10412541;28;20506;-57
2024/04/06 12:23:24;;;;;;;;;;;23.60;99.90;;;;;;10412924;28;20055;-55
2024/04/06 12:28:27;;;;;;;7.25;2.50;;;23.70;99.90;;;;;;10414163;28;19921;-58
2024/04/06 12:33:30;;;;;;;1.35;1.02;;;24.00;99.40;;;;;;10399153;28;20074;-55
2024/04/06 12:38:34;;;;;;;5.32;1.30;;;24.20;99.90;;;;;;10406758;28;20072;-56
2024/04/06 12:43:42;;;;;;;2.92;1.00;;;24.20;99.90;;;;;;10409201;28;20060;-58
2024/04/06 12:48:47;;;;;;;3.35;1.00;;;24.30;99.90;;;;;;10409409;28;20041;-58
2024/04/06 12:53:51;;;;;;;9.55;1.40;;;24.40;99.90;;;;;;10402862;28;20053;-57
2024/04/06 12:58:58;;;;;;;2.75;0.90;;;24.60;98.60;;;;;;10413501;28;20052;-57
2024/04/06 13:04:01;;;;;;;4.28;1.95;;;24.60;99.00;;;;;;10409829;28;20049;-56
2024/04/06 13:09:08;;;;;;;5.80;2.13;;;24.60;99.40;;;;;;10408460;28;20419;-58
2024/04/06 13:14:12;;;;;;;4.00;1.00;;;24.80;95.40;;;;;;10406418;28;20056;-57
2024/04/06 13:19:17;;;;;;;6.05;1.50;;;25.00;98.60;;;;;;10405890;28;20071;-59
2024/04/06 13:24:24;;;;;;;3.65;1.00;;;24.90;99.60;;;;;;10402545;28;20139;-58
2024/04/06 13:29:28;;;;;;;4.45;1.13;;;25.20;95.90;;;;;;10406021;28;20463;-55
2024/04/06 13:34:30;;;;;;;4.05;0.77;;;25.10;98.90;;;;;;10407345;28;20049;-57
2024/04/06 13:39:34;;;;;;;2.38;0.77;;;24.90;98.40;;;;;;10412075;28;20053;-57
2024/04/06 13:44:36;;;;;;;6.45;2.20;;;24.70;95.70;;;;;;10416045;28;20049;-55
2024/04/06 13:49:40;;;;;;;3.13;0.80;;;24.80;94.80;;;;;;10419345;28;20044;-56
2024/04/06 13:54:44;;;;;;;4.97;1.30;;;25.00;97.90;;;;;;10418690;28;20084;-55
2024/04/06 13:59:46;;;;;;;3.17;0.80;;;25.00;93.90;;;;;;10420279;28;20461;-54
2024/04/06 14:04:48;;;;;;;2.10;0.77;;;25.20;92.20;;;;;;10418127;28;20078;-52
2024/04/06 14:09:54;;;;;;;8.65;1.00;;;25.40;93.00;;;;;;10420157;28;20186;-54
2024/04/06 14:14:58;;;;;;;2.33;0.80;;;25.60;93.00;;;;;;10420833;28;20539;-56
2024/04/06 14:20:00;;;;;;;2.15;1.00;;;25.80;96.00;;;;;;10416294;28;20065;-54
2024/04/06 14:25:03;;;;;;;2.28;1.02;;;26.10;95.60;;;;;;10418646;28;20064;-61
2024/04/06 14:35:24;;;;;;;1.27;0.80;;;26.10;92.30;;;;;;10415880;28;20098;-56
2024/04/06 14:40:31;;;;;;;5.00;1.38;;;26.20;96.00;;;;;;10413604;28;20047;-59
2024/04/06 14:45:33;;;;;;;7.20;1.92;;;26.40;97.80;;;;;;10414309;28;20049;-58
2024/04/06 14:50:38;;;;;;;2.95;0.77;;;26.20;96.60;;;;;;10415222;28;20049;-58
2024/04/06 14:55:41;;;;;;;7.28;1.55;;;26.10;97.40;;;;;;10413111;28;20736;-57
2024/04/06 15:00:43;;;;;;;2.63;1.13;;;25.50;89.50;;;;;;10416896;28;20133;-57
2024/04/06 15:05:45;;;;;;;7.75;1.15;;;24.80;98.30;;;;;;10415438;28;20052;-57
2024/04/06 15:10:56;;;;;;;3.17;0.95;;;24.30;92.50;;;;;;10412214;28;20496;-55
2024/04/06 15:15:58;;;;;;;9.55;1.40;;;24.20;95.10;;;;;;10411130;28;20076;-53
2024/04/06 15:21:12;;;;;;;;;;;24.00;99.50;;;;;;10417131;28;20071;-56
2024/04/06 15:26:16;;;;;;;6.68;1.50;;;23.80;93.90;;;;;;10413849;28;19921;-57
2024/04/06 15:31:21;;;;;;;6.47;1.50;;;24.30;96.50;;;;;;10414166;28;20055;-60
2024/04/06 15:36:23;;;;;;;5.10;1.58;;;24.00;93.60;;;;;;10412876;28;20114;-53
2024/04/06 15:41:31;;;;;;;;;;;24.00;99.90;;;;;;10412964;28;20080;-52
2024/04/06 15:46:41;;;;;;;5.63;1.17;;;23.70;94.50;;;;;;10404622;28;20780;-57
2024/04/06 15:51:44;;;;;;;9.25;1.45;;;23.80;98.40;;;;;;10413625;28;20060;-58
2024/04/06 15:56:48;;;;;;;12.65;2.17;;;24.10;95.00;;;;;;10405331;28;20822;-57
2024/04/06 16:01:53;;;;;;;6.53;1.65;;;23.40;98.30;;;;;;10406251;28;20060;-57
2024/04/06 16:06:55;;;;;;;10.60;1.83;;;23.20;94.60;;;;;;10407128;28;20133;-57
2024/04/06 16:12:00;;;;;;;9.57;1.70;;;22.90;95.40;;;;;;10405539;28;20101;-58
2024/04/06 16:17:02;;;;;;;13.35;2.50;;;23.10;96.50;;;;;;10406786;28;20086;-58
2024/04/06 16:22:06;;;;;;;7.68;1.65;;;22.90;98.00;;;;;;10406526;28;20056;-60
2024/04/06 16:27:10;;;;;;;15.07;2.72;;;22.90;98.00;;;;;;10403987;28;20087;-58
2024/04/06 16:32:20;;;;;;;12.95;1.77;;;22.50;96.90;;;;;;10408215;28;20864;-59
2024/04/06 16:37:22;;;;;;;4.75;1.55;;;22.80;99.80;;;;;;10404143;28;21033;-58
2024/04/06 16:42:29;;;;;;;7.18;1.90;;;23.00;99.90;;;;;;10405336;28;20076;-57
2024/04/06 16:47:34;;;;;;;8.98;1.38;;;22.90;99.90;;;;;;10405889;28;20041;-60
2024/04/06 16:52:37;;;;;;;7.53;1.25;;;23.30;99.90;;;;;;10407061;28;20051;-61
2024/04/06 16:57:49;;;;;;;7.95;1.65;;;22.40;98.10;;;;;;10406053;28;20131;-60
2024/04/06 17:02:51;;;;;;;7.25;2.15;;;22.20;98.90;;;;;;10404872;28;20052;-61
2024/04/06 17:07:53;;;;;;;9.25;1.50;;;22.20;99.90;;;;;;10405229;28;20049;-62
2024/04/06 17:12:57;;;;;;;5.05;1.23;;;22.00;99.60;;;;;;10418232;28;20091;-59
2024/04/06 17:18:03;;;;;;;4.55;1.10;;;22.00;99.20;;;;;;10415385;28;20049;-60
2024/04/06 17:23:15;;;;;;;6.97;1.58;;;21.80;99.40;;;;;;10418799;28;20063;-60
2024/04/06 17:28:22;;;;;;;;;;;21.50;99.50;;;;;;10413727;28;20052;-59
2024/04/06 17:33:25;;;;;;;7.20;1.40;;;21.40;99.90;;;;;;10411299;28;19924;-57
2024/04/06 17:38:30;;;;;;;7.53;2.58;;;22.30;99.90;;;;;;10407623;28;20777;-57
2024/04/06 17:43:35;;;;;;;14.18;2.67;;;23.10;99.90;;;;;;10371091;28;20518;-58
2024/04/06 17:48:39;;;;;;;8.77;1.98;;;23.20;99.90;;;;;;10371893;28;20041;-59
2024/04/06 17:53:46;;;;;;;6.53;1.92;;;23.30;99.90;;;;;;10377707;28;20453;-56
2024/04/06 17:58:56;;;;;;;15.75;2.38;;;23.40;99.90;;;;;;10375090;28;20147;-56
2024/04/06 18:03:59;;;;;;;8.52;2.25;;;23.60;99.90;;;;;;10373051;28;20902;-58
2024/04/06 18:09:03;;;;;;;12.68;2.05;;;23.70;99.90;;;;;;10370965;28;20778;-60
2024/04/06 18:14:51;;;;;;;5.50;2.42;;;23.40;99.90;;;;;;10371725;28;20780;-58
2024/04/06 18:19:53;;;;;;;11.45;2.28;;;23.40;99.90;;;;;;10368782;28;20072;-57
2024/04/06 18:24:56;;;;;;;15.13;2.78;;;23.20;99.90;;;;;;10371365;28;20064;-58
2024/04/06 18:30:00;;;;;;;5.10;2.00;;;23.10;99.90;;;;;;10373277;28;20068;-59
2024/04/06 18:35:04;;;;;;;6.32;1.83;;;22.60;99.90;;;;;;10367725;28;20991;-59
2024/04/06 18:40:08;;;;;;;5.70;2.05;;;22.80;99.90;;;;;;10391240;28;20041;-58
2024/04/06 18:45:12;;;;;;;6.18;1.90;;;22.30;99.90;;;;;;10412178;28;20106;-59
2024/04/06 18:50:22;;;;;;;7.15;1.60;;;22.50;99.90;;;;;;10412558;28;20642;-60
2024/04/06 18:55:33;;;;;;;5.20;1.83;;;22.20;99.90;;;;;;10418893;28;20045;-60
2024/04/06 19:00:39;;;;;;;5.15;1.33;;;22.20;99.90;;;;;;10415471;28;20132;-57
2024/04/06 19:05:42;;;;;;;6.15;1.45;;;22.20;99.90;;;;;;10420087;28;20044;-61
2024/04/06 19:10:45;;;;;;;6.47;1.85;;;22.20;99.90;;;;;;10413256;28;20179;-59
2024/04/06 19:15:49;;;;;;;3.67;1.30;;;20.80;99.90;;;;;;10413449;28;20060;-67
2024/04/06 19:20:52;;;;;;;5.45;1.52;;;20.50;99.90;;;;;;10417988;28;20583;-59
2024/04/06 19:25:55;;;;;;;13.70;1.60;;;19.90;99.90;;;;;;10415865;28;20049;-58
2024/04/06 19:31:03;;;;;;;7.63;1.50;;;19.60;99.90;;;;;;10416606;28;20065;-60
2024/04/06 19:36:12;;;;;;;9.70;2.22;;;20.00;99.90;;;;;;10418046;28;20049;-59
2024/04/06 19:41:28;;;;;;;6.90;1.70;;;19.60;99.90;;;;;;10415578;28;20478;-59
2024/04/06 19:46:35;;;;;;;7.68;2.47;;;19.40;99.90;;;;;;10416499;28;20121;-60
2024/04/06 19:51:37;;;;;;;9.63;1.42;;;19.40;99.90;;;;;;10417881;28;20053;-59
2024/04/06 19:56:45;;;;;;;5.45;1.73;;;19.50;99.90;;;;;;10417940;28;20040;-60
2024/04/06 20:01:53;;;;;;;8.27;1.50;;;19.30;99.90;;;;;;10419557;28;20125;-60
2024/04/06 20:06:57;;;;;;;12.43;1.85;;;19.40;99.90;;;;;;10419707;28;20432;-57
2024/04/06 20:11:59;;;;;;;8.70;1.90;;;19.00;99.90;;;;;;10420021;28;20057;-60
2024/04/06 20:17:04;;;;;;;8.32;1.83;;;19.00;99.90;;;;;;10414636;28;20167;-60
2024/04/06 20:27:26;;;;;;;12.55;2.13;;;19.00;99.90;;;;;;10415059;28;20045;-59
2024/04/06 20:32:39;;;;;;;10.38;1.95;;;19.10;99.90;;;;;;10415219;28;20053;-59
2024/04/06 20:37:46;;;;;;;3.05;1.50;;;18.90;99.90;;;;;;10415572;28;20449;-59
2024/04/06 20:42:48;;;;;;;7.95;1.83;;;19.00;99.90;;;;;;10411504;28;20061;-59
2024/04/06 20:47:51;;;;;;;11.93;1.50;;;19.00;99.90;;;;;;10431489;28;20045;-59
2024/04/06 20:52:54;;;;;;;8.77;2.08;;;19.00;99.90;;;;;;10433484;28;20091;-60
2024/04/06 20:57:55;;;;;;;;;;;19.10;99.90;;;;;;10434897;28;20087;-59
2024/04/06 21:03:05;;;;;;;8.60;1.65;;;19.00;99.90;;;;;;10438291;28;19924;-60
2024/04/06 21:08:10;;;;;;;6.95;1.20;;;19.00;99.90;;;;;;10432764;28;20055;-60
2024/04/06 21:13:12;;;;;;;9.57;1.38;;;18.80;99.90;;;;;;10432185;28;20052;-60
2024/04/06 21:18:18;;;;;;;9.75;1.60;;;18.80;99.90;;;;;;10433296;28;20045;-59
2024/04/06 21:23:21;;;;;;;10.30;2.38;;;18.90;99.90;;;;;;10433912;28;20150;-60
2024/04/06 21:28:23;;;;;;;11.60;2.13;;;18.70;99.90;;;;;;10439521;28;20143;-57
2024/04/06 21:33:29;;;;;;;5.95;1.40;;;18.40;99.90;;;;;;10434628;28;20094;-59
2024/04/06 21:38:37;;;;;;;6.35;1.65;;;18.90;99.90;;;;;;10436825;28;20052;-60
2024/04/06 21:43:44;;;;;;;6.07;2.17;;;19.90;99.90;;;;;;10431615;28;20053;-58
2024/04/06 21:48:53;;;;;;;12.82;3.90;;;19.20;99.90;;;;;;10436119;28;20049;-60
2024/04/06 21:53:57;;;;;;;6.25;1.85;;;18.30;99.90;;;;;;10431629;28;20072;-60
2024/04/06 21:58:59;;;;;;;5.43;1.33;;;18.30;99.90;;;;;;10430786;28;20061;-59
2024/04/06 22:04:05;;;;;;;4.63;1.48;;;18.50;99.90;;;;;;10436271;28;20159;-59
2024/04/06 22:09:09;;;;;;;14.85;2.22;;;18.10;99.90;;;;;;10436668;28;20060;-59
2024/04/06 22:14:11;;;;;;;11.15;1.95;;;18.70;99.90;;;;;;10430733;28;20139;-60
2024/04/06 22:19:15;;;;;;;;;;;18.70;99.90;;;;;;10432833;28;20106;-57
2024/04/06 22:24:17;;;;;;;7.50;1.48;;;18.10;99.90;;;;;;10431036;28;19932;-60
2024/04/06 22:29:25;;;;;;;8.73;1.67;;;17.70;99.90;;;;;;10429342;28;20045;-59
2024/04/06 22:34:36;;;;;;;10.98;1.52;;;17.60;99.90;;;;;;10427641;28;20049;-58
2024/04/06 22:39:40;;;;;;;4.35;1.70;;;17.60;99.90;;;;;;10431127;28;20123;-60
2024/04/06 22:44:42;;;;;;;15.80;1.70;;;17.40;99.90;;;;;;10432757;28;20053;-61
2024/04/06 22:49:46;;;;;;;15.52;2.20;;;17.30;99.90;;;;;;10429871;28;20053;-59
2024/04/06 22:54:48;;;;;;;7.72;1.75;;;17.40;99.90;;;;;;10425204;28;20077;-60
2024/04/06 22:59:53;;;;;;;11.65;1.75;;;17.30;99.90;;;;;;10422573;28;20759;-60
2024/04/06 23:05:08;;;;;;;13.68;3.03;;;17.20;99.90;;;;;;10424547;28;20061;-58
2024/04/06 23:10:11;;;;;;;11.90;2.15;;;17.00;99.90;;;;;;10425505;28;20041;-60
2024/04/06 23:15:19;;;;;;;9.45;2.20;;;16.80;99.90;;;;;;10427221;28;20048;-57
2024/04/06 23:20:23;;;;;;;7.05;2.08;;;16.90;99.90;;;;;;10424125;28;20044;-59
2024/04/06 23:25:27;;;;;;;8.07;2.10;;;16.10;99.90;;;;;;10427504;28;20398;-59
2024/04/06 23:30:32;;;;;;;13.32;2.33;;;16.20;99.90;;;;;;10423491;28;20407;-58
2024/04/06 23:35:38;;;;;;;17.48;2.53;;;15.90;99.90;;;;;;10423884;28;20637;-59
2024/04/06 23:40:44;;;;;;;14.77;2.47;;;15.80;99.90;;;;;;10426115;28;20107;-58
2024/04/06 23:45:46;;;;;;;8.52;3.40;;;15.60;99.90;;;;;;10424013;28;20065;-59
2024/04/06 23:50:59;;;;;;;5.17;1.57;;;15.70;99.90;;;;;;10425333;28;20037;-58
2024/04/06 23:56:01;;;;;;;9.73;2.83;;;15.70;99.90;;;;;;10425849;28;20056;-60
